Time;durP1;ratioP1;P1;durP2;ratioP2;P2;SDS_P1;SDS_P2;PMS_P1;PMS_P2;Temp;Humidity;BMP_temperature;BMP_pressure;BME280_temperature;BME280_humidity;BME280_pressure;Samples;Min_cycle;Max_cycle;Signal;HPM_P1;HPM_P2
2022/03/01 00:00:12;;;;;;;;;;;1.60;99.90;;;;;;5023038;28;19939;-80
2022/03/01 00:02:39;;;;;;;;;;;1.50;99.90;;;;;;5024340;28;19968;-80
2022/03/01 00:05:06;;;;;;;;;;;1.40;99.90;;;;;;5019706;28;19929;-74
2022/03/01 00:07:33;;;;;;;;;;;1.40;99.90;;;;;;5018786;28;19933;-74
2022/03/01 00:10:00;;;;;;;;;;;1.40;99.90;;;;;;5016649;28;19939;-74
2022/03/01 00:12:28;;;;;;;;;;;1.40;99.90;;;;;;5018868;28;20028;-74
2022/03/01 00:14:54;;;;;;;;;;;1.30;99.90;;;;;;5018086;28;20403;-74
2022/03/01 00:17:21;;;;;;;;;;;1.30;99.90;;;;;;5016237;28;20335;-74
2022/03/01 00:19:48;;;;;;;;;;;1.40;99.90;;;;;;5017019;28;19940;-75
2022/03/01 00:22:14;;;;;;;;;;;1.50;99.90;;;;;;5016134;28;19925;-74
2022/03/01 00:24:41;;;;;;;;;;;1.60;99.90;;;;;;5018252;28;20323;-75
2022/03/01 00:27:08;;;;;;;;;;;1.70;99.90;;;;;;5018991;28;19931;-75
2022/03/01 00:29:36;;;;;;;;;;;1.90;99.90;;;;;;5017508;28;20011;-74
2022/03/01 00:32:03;;;;;;;;;;;1.90;99.90;;;;;;5020104;28;20399;-75
2022/03/01 00:34:29;;;;;;;;;;;2.00;99.90;;;;;;5021160;28;19925;-75
2022/03/01 00:36:56;;;;;;;;;;;2.00;99.90;;;;;;5017672;28;19940;-74
2022/03/01 00:39:23;;;;;;;;;;;2.20;99.90;;;;;;5020161;28;20288;-74
2022/03/01 00:41:49;;;;;;;;;;;2.20;99.90;;;;;;5014880;28;19940;-74
2022/03/01 00:44:16;;;;;;;;;;;2.20;99.90;;;;;;5018413;28;19939;-74
2022/03/01 00:46:44;;;;;;;;;;;2.10;99.90;;;;;;5019704;28;20376;-74
2022/03/01 00:49:11;;;;;;;;;;;2.00;99.90;;;;;;5020015;28;19979;-74
2022/03/01 00:51:37;;;;;;;;;;;2.00;99.90;;;;;;5014882;28;19943;-75
2022/03/01 00:54:04;;;;;;;;;;;2.10;99.90;;;;;;5017798;28;19933;-74
2022/03/01 00:56:31;;;;;;;;;;;2.10;99.90;;;;;;5014167;28;19933;-74
2022/03/01 00:58:58;;;;;;;;;;;2.10;99.90;;;;;;5013991;28;19926;-74
2022/03/01 01:01:25;;;;;;;;;;;2.20;99.90;;;;;;5017627;28;19932;-74
2022/03/01 01:03:53;;;;;;;;;;;2.30;99.90;;;;;;5016995;28;19925;-74
2022/03/01 01:06:19;;;;;;;;;;;2.40;99.50;;;;;;5022943;28;19933;-73
2022/03/01 01:08:46;;;;;;;;;;;2.50;99.20;;;;;;5022180;28;19936;-74
2022/03/01 01:11:13;;;;;;;;;;;2.50;98.90;;;;;;5022462;28;19997;-74
2022/03/01 01:13:39;;;;;;;;;;;2.40;98.60;;;;;;5022701;28;19932;-74
2022/03/01 01:16:06;;;;;;;;;;;2.30;98.80;;;;;;5021852;28;19933;-73
2022/03/01 01:18:33;;;;;;;;;;;2.20;99.10;;;;;;5021537;28;20623;-74
2022/03/01 01:21:01;;;;;;;;;;;2.20;99.00;;;;;;5023439;28;19968;-74
2022/03/01 01:23:27;;;;;;;;;;;2.10;99.20;;;;;;5022684;28;20381;-74
2022/03/01 01:25:54;;;;;;;;;;;2.00;99.40;;;;;;5020416;28;19925;-74
2022/03/01 01:28:21;;;;;;;;;;;2.00;99.80;;;;;;5021775;28;19925;-74
2022/03/01 01:30:48;;;;;;;;;;;1.90;99.90;;;;;;5021910;28;19929;-72
2022/03/01 01:33:14;;;;;;;;;;;2.00;99.80;;;;;;5023121;28;20296;-74
2022/03/01 01:35:41;;;;;;;;;;;1.90;99.70;;;;;;5019223;28;19925;-74
2022/03/01 01:38:09;;;;;;;;;;;1.80;99.70;;;;;;5023584;28;19933;-74
2022/03/01 01:40:36;;;;;;;;;;;1.80;99.80;;;;;;5019597;28;19953;-75
2022/03/01 01:43:04;;;;;;;;;;;1.80;99.90;;;;;;5023634;28;20443;-74
2022/03/01 01:45:32;;;;;;;;;;;1.80;99.90;;;;;;5021836;28;19997;-74
2022/03/01 01:47:59;;;;;;;;;;;1.80;99.90;;;;;;5023000;28;19931;-74
2022/03/01 01:50:26;;;;;;;;;;;1.80;99.90;;;;;;5021614;28;20303;-74
2022/03/01 01:52:53;;;;;;;;;;;1.70;99.90;;;;;;5022966;28;19933;-74
2022/03/01 01:55:22;;;;;;;;;;;1.70;99.90;;;;;;5021350;28;20296;-74
2022/03/01 01:57:49;;;;;;;;;;;1.70;99.90;;;;;;5021918;28;19939;-74
2022/03/01 02:00:15;;;;;;;;;;;1.70;99.90;;;;;;5023124;28;20299;-74
2022/03/01 02:02:42;;;;;;;;;;;1.70;99.90;;;;;;5026259;28;19933;-74
2022/03/01 02:05:09;;;;;;;;;;;1.60;99.90;;;;;;5027460;28;19932;-74
2022/03/01 02:07:36;;;;;;;;;;;1.60;99.90;;;;;;5021635;28;19933;-74
2022/03/01 02:10:03;;;;;;;;;;;1.60;99.90;;;;;;5023363;28;20516;-74
2022/03/01 02:12:31;;;;;;;;;;;1.60;99.90;;;;;;5025085;28;19982;-74
2022/03/01 02:14:58;;;;;;;;;;;1.50;99.90;;;;;;5024226;28;20200;-75
2022/03/01 02:17:27;;;;;;;;;;;1.60;99.90;;;;;;5025348;28;19933;-73
2022/03/01 02:19:55;;;;;;;;;;;1.60;99.90;;;;;;5021681;28;19929;-73
2022/03/01 02:22:23;;;;;;;;;;;1.80;99.90;;;;;;5023068;28;19943;-73
2022/03/01 02:24:50;;;;;;;;;;;1.90;99.90;;;;;;5019711;28;19926;-73
2022/03/01 02:27:19;;;;;;;;;;;2.00;99.90;;;;;;5022185;28;21802;-73
2022/03/01 02:29:45;;;;;;;;;;;2.00;99.90;;;;;;5020934;28;19929;-74
2022/03/01 02:32:12;;;;;;;;;;;2.00;99.90;;;;;;5024923;28;19925;-73
2022/03/01 02:34:39;;;;;;;;;;;2.00;99.90;;;;;;5023926;28;19943;-74
2022/03/01 02:37:05;;;;;;;;;;;1.90;99.90;;;;;;5024564;28;19936;-73
2022/03/01 02:39:34;;;;;;;;;;;1.90;99.90;;;;;;5024872;28;19925;-74
2022/03/01 02:42:00;;;;;;;;;;;1.80;99.90;;;;;;5024130;28;20016;-74
2022/03/01 02:44:27;;;;;;;;;;;1.90;99.90;;;;;;5024322;28;19929;-74
2022/03/01 02:46:54;;;;;;;;;;;1.90;99.90;;;;;;5023798;28;19925;-75
2022/03/01 02:49:20;;;;;;;;;;;2.00;99.90;;;;;;5026542;28;19983;-74
2022/03/01 02:51:47;;;;;;;;;;;2.10;99.90;;;;;;5024572;28;19929;-74
2022/03/01 02:54:14;;;;;;;;;;;2.00;99.90;;;;;;5025043;28;19968;-74
2022/03/01 02:56:42;;;;;;;;;;;1.80;99.90;;;;;;5025357;28;19925;-74
2022/03/01 02:59:09;;;;;;;;;;;2.20;99.90;;;;;;5025464;28;21773;-74
2022/03/01 03:01:36;;;;;;;;;;;1.80;99.90;;;;;;5024783;28;20008;-73
2022/03/01 03:04:04;;;;;;;;;;;1.80;99.90;;;;;;5025187;28;19925;-74
2022/03/01 03:06:31;;;;;;;;;;;1.80;99.90;;;;;;5023878;28;19925;-74
2022/03/01 03:08:58;;;;;;;;;;;1.70;99.90;;;;;;5021620;28;19940;-74
2022/03/01 03:11:24;;;;;;;;;;;1.70;99.90;;;;;;5021749;28;20036;-73
2022/03/01 03:13:52;;;;;;;;;;;1.80;99.90;;;;;;5019649;28;20025;-73
2022/03/01 03:16:19;;;;;;;;;;;1.80;99.90;;;;;;5023167;28;19947;-73
2022/03/01 03:18:46;;;;;;;;;;;1.80;99.90;;;;;;5027197;28;20447;-73
2022/03/01 03:21:12;;;;;;;;;;;1.90;99.90;;;;;;5021382;28;19929;-73
2022/03/01 03:23:39;;;;;;;;;;;1.90;99.90;;;;;;5019146;28;20480;-73
2022/03/01 03:26:06;;;;;;;;;;;1.90;99.90;;;;;;5020928;28;19925;-73
2022/03/01 03:28:32;;;;;;;;;;;1.80;99.90;;;;;;5022695;28;20302;-73
2022/03/01 03:31:00;;;;;;;;;;;1.80;99.90;;;;;;5021839;28;20382;-73
2022/03/01 03:33:27;;;;;;;;;;;1.80;99.90;;;;;;5021608;28;20221;-74
2022/03/01 03:35:56;;;;;;;;;;;1.90;99.90;;;;;;5022636;28;19933;-74
2022/03/01 03:38:23;;;;;;;;;;;1.90;99.90;;;;;;5021137;28;20315;-73
2022/03/01 03:40:50;;;;;;;;;;;1.90;99.90;;;;;;5022900;28;19933;-73
2022/03/01 03:43:17;;;;;;;;;;;1.90;99.90;;;;;;5020801;28;19932;-73
2022/03/01 03:45:43;;;;;;;;;;;1.90;99.90;;;;;;5023844;28;19935;-74
2022/03/01 03:48:11;;;;;;;;;;;1.90;99.90;;;;;;5024545;28;20019;-74
2022/03/01 03:50:38;;;;;;;;;;;2.00;99.90;;;;;;5022475;28;20400;-74
2022/03/01 03:53:05;;;;;;;;;;;1.90;99.90;;;;;;5022045;28;19935;-74
2022/03/01 03:55:31;;;;;;;;;;;2.10;99.90;;;;;;5019498;28;19936;-72
2022/03/01 03:57:58;;;;;;;;;;;2.00;99.90;;;;;;5022273;28;20033;-73
2022/03/01 04:00:25;;;;;;;;;;;2.00;99.90;;;;;;5021684;28;20471;-73
2022/03/01 04:02:52;;;;;;;;;;;2.00;99.90;;;;;;5021318;28;19944;-73
2022/03/01 04:05:20;;;;;;;;;;;2.00;99.90;;;;;;5024505;28;19933;-73
2022/03/01 04:07:47;;;;;;;;;;;2.20;99.90;;;;;;5018785;28;20031;-73
2022/03/01 04:10:14;;;;;;;;;;;2.20;99.90;;;;;;5022332;28;19925;-73
2022/03/01 04:12:41;;;;;;;;;;;2.30;99.90;;;;;;5021076;28;19941;-73
2022/03/01 04:15:08;;;;;;;;;;;2.40;99.90;;;;;;5019830;28;19925;-73
2022/03/01 04:17:35;;;;;;;;;;;2.40;99.90;;;;;;5024273;28;19945;-73
2022/03/01 04:20:02;;;;;;;;;;;2.30;99.90;;;;;;5021886;28;19925;-73
2022/03/01 04:22:30;;;;;;;;;;;2.40;99.70;;;;;;5022961;28;19924;-73
2022/03/01 04:24:58;;;;;;;;;;;2.30;99.50;;;;;;5023465;28;19926;-73
2022/03/01 04:27:25;;;;;;;;;;;2.40;99.60;;;;;;5023059;28;19939;-73
2022/03/01 04:29:51;;;;;;;;;;;2.40;99.40;;;;;;5019678;28;20356;-73
2022/03/01 04:32:18;;;;;;;;;;;2.40;99.30;;;;;;5023387;28;19933;-74
2022/03/01 04:34:45;;;;;;;;;;;2.40;99.30;;;;;;5021793;28;19932;-74
2022/03/01 04:37:12;;;;;;;;;;;2.30;99.20;;;;;;5020668;28;19925;-73
2022/03/01 04:39:40;;;;;;;;;;;2.40;99.20;;;;;;5026578;28;20483;-73
2022/03/01 04:42:06;;;;;;;;;;;2.40;99.10;;;;;;5025723;28;20368;-73
2022/03/01 04:44:33;;;;;;;;;;;2.40;99.40;;;;;;5022799;28;20416;-73
2022/03/01 04:47:00;;;;;;;;;;;2.50;99.30;;;;;;5023132;28;19933;-73
2022/03/01 04:49:28;;;;;;;;;;;2.50;99.30;;;;;;5026861;28;19939;-73
2022/03/01 04:51:54;;;;;;;;;;;2.50;99.10;;;;;;5024987;28;20331;-73
2022/03/01 04:54:21;;;;;;;;;;;2.50;99.00;;;;;;5027283;28;19968;-73
2022/03/01 04:56:49;;;;;;;;;;;2.50;98.90;;;;;;5026888;28;20035;-73
2022/03/01 04:59:16;;;;;;;;;;;2.50;98.80;;;;;;5026327;28;19992;-73
2022/03/01 05:01:42;;;;;;;;;;;2.50;98.60;;;;;;5028330;28;19936;-73
2022/03/01 05:04:09;;;;;;;;;;;2.50;98.60;;;;;;5026806;28;20047;-73
2022/03/01 05:06:36;;;;;;;;;;;2.40;98.80;;;;;;5026287;28;19939;-73
2022/03/01 05:09:02;;;;;;;;;;;2.30;98.90;;;;;;5028926;28;19925;-75
2022/03/01 05:11:29;;;;;;;;;;;2.30;99.60;;;;;;5023885;28;20318;-74
2022/03/01 05:13:57;;;;;;;;;;;2.20;99.80;;;;;;5023335;28;20472;-74
2022/03/01 05:16:24;;;;;;;;;;;2.20;99.90;;;;;;5024667;28;21514;-74
2022/03/01 05:18:50;;;;;;;;;;;2.20;99.90;;;;;;5022098;28;19925;-74
2022/03/01 05:21:17;;;;;;;;;;;2.30;99.90;;;;;;5024624;28;20033;-74
2022/03/01 05:23:44;;;;;;;;;;;2.40;99.90;;;;;;5022878;28;20031;-74
2022/03/01 05:26:10;;;;;;;;;;;2.40;99.90;;;;;;5022968;28;19931;-75
2022/03/01 05:28:37;;;;;;;;;;;2.40;99.90;;;;;;5022596;28;19926;-74
2022/03/01 05:31:05;;;;;;;;;;;2.50;99.90;;;;;;5021439;28;20419;-74
2022/03/01 05:33:32;;;;;;;;;;;2.60;99.90;;;;;;5028304;28;19932;-74
2022/03/01 05:35:59;;;;;;;;;;;2.60;99.60;;;;;;5025222;28;19935;-74
2022/03/01 05:38:25;;;;;;;;;;;2.80;99.10;;;;;;5023901;28;19925;-74
2022/03/01 05:40:52;;;;;;;;;;;3.20;98.80;;;;;;5023762;28;19964;-74
2022/03/01 05:43:19;;;;;;;;;;;2.90;98.30;;;;;;5024008;28;20312;-74
2022/03/01 05:45:45;;;;;;;;;;;2.90;98.00;;;;;;5022035;28;20463;-74
2022/03/01 05:48:13;;;;;;;;;;;2.90;97.80;;;;;;5026709;28;20698;-74
2022/03/01 05:50:40;;;;;;;;;;;2.80;97.90;;;;;;5020361;28;20559;-74
2022/03/01 05:53:07;;;;;;;;;;;2.90;97.80;;;;;;5023042;28;20371;-74
2022/03/01 05:55:33;;;;;;;;;;;3.00;97.60;;;;;;5024589;28;19931;-74
2022/03/01 05:58:00;;;;;;;;;;;2.90;97.10;;;;;;5026335;28;19940;-74
2022/03/01 06:00:27;;;;;;;;;;;2.90;96.90;;;;;;5023529;28;20033;-74
2022/03/01 06:02:54;;;;;;;;;;;2.80;96.90;;;;;;5029136;28;19936;-74
2022/03/01 06:05:22;;;;;;;;;;;2.90;96.90;;;;;;5019416;28;19970;-74
2022/03/01 06:07:48;;;;;;;;;;;2.90;96.70;;;;;;5025730;28;20020;-73
2022/03/01 06:10:17;;;;;;;;;;;2.80;96.90;;;;;;5020089;28;19929;-73
2022/03/01 06:12:44;;;;;;;;;;;2.70;97.20;;;;;;5022116;28;19930;-75
2022/03/01 06:15:11;;;;;;;;;;;2.70;97.30;;;;;;5019203;28;19929;-74
2022/03/01 06:17:38;;;;;;;;;;;2.70;97.20;;;;;;5020181;28;20020;-75
2022/03/01 06:20:05;;;;;;;;;;;2.70;97.20;;;;;;5023961;28;19925;-74
2022/03/01 06:22:33;;;;;;;;;;;2.80;97.10;;;;;;5031338;28;20415;-72
2022/03/01 06:25:00;;;;;;;;;;;2.90;96.90;;;;;;5027064;28;19933;-73
2022/03/01 06:27:29;;;;;;;;;;;2.90;96.80;;;;;;5025960;28;19925;-73
2022/03/01 06:29:56;;;;;;;;;;;2.90;96.90;;;;;;5022068;28;19929;-73
2022/03/01 06:32:23;;;;;;;;;;;3.00;97.00;;;;;;5022955;28;20011;-73
2022/03/01 06:34:49;;;;;;;;;;;3.00;97.00;;;;;;5024533;28;19932;-73
2022/03/01 06:37:16;;;;;;;;;;;3.00;97.00;;;;;;5028035;28;20011;-69
2022/03/01 06:39:45;;;;;;;;;;;3.00;97.10;;;;;;5026324;28;19929;-72
2022/03/01 06:42:13;;;;;;;;;;;3.10;96.90;;;;;;5026821;28;20008;-72
2022/03/01 06:44:39;;;;;;;;;;;3.00;97.10;;;;;;5030488;28;19933;-73
2022/03/01 06:47:06;;;;;;;;;;;2.80;97.30;;;;;;5027017;28;19925;-73
2022/03/01 06:49:33;;;;;;;;;;;2.90;97.50;;;;;;5025188;28;20380;-72
2022/03/01 06:52:00;;;;;;;;;;;3.00;97.30;;;;;;5025897;28;19933;-73
2022/03/01 06:54:27;;;;;;;;;;;3.00;97.40;;;;;;5027547;28;19945;-73
2022/03/01 06:56:55;;;;;;;;;;;3.10;97.10;;;;;;5021064;28;19933;-73
2022/03/01 06:59:21;;;;;;;;;;;3.20;97.00;;;;;;5030307;28;19998;-72
2022/03/01 07:01:48;;;;;;;;;;;3.40;96.80;;;;;;5020436;28;19939;-72
2022/03/01 07:04:14;;;;;;;;;;;3.50;96.60;;;;;;5023837;28;19925;-72
2022/03/01 07:06:41;;;;;;;;;;;3.50;96.40;;;;;;5022639;28;20032;-73
2022/03/01 07:09:09;;;;;;;;;;;3.40;96.40;;;;;;5035049;28;19929;-72
2022/03/01 07:11:36;;;;;;;;;;;3.30;97.20;;;;;;5033060;28;19925;-72
2022/03/01 07:14:04;;;;;;;;;;;3.30;97.40;;;;;;5033555;28;20009;-72
2022/03/01 07:16:31;;;;;;;;;;;3.20;97.10;;;;;;5032414;28;19925;-72
2022/03/01 07:18:59;;;;;;;;;;;3.10;97.30;;;;;;5031337;28;19968;-72
2022/03/01 07:21:26;;;;;;;;;;;3.20;97.50;;;;;;5032108;28;19987;-72
2022/03/01 07:23:52;;;;;;;;;;;3.20;97.30;;;;;;5033494;28;20394;-73
2022/03/01 07:26:19;;;;;;;;;;;3.20;97.20;;;;;;5029874;28;20300;-74
2022/03/01 07:28:46;;;;;;;;;;;3.20;97.10;;;;;;5033741;28;19925;-73
2022/03/01 07:31:14;;;;;;;;;;;3.40;97.20;;;;;;5031837;28;19933;-73
2022/03/01 07:33:41;;;;;;;;;;;3.40;96.80;;;;;;5033333;28;19925;-73
2022/03/01 07:36:07;;;;;;;;;;;3.50;97.40;;;;;;5031620;28;19925;-72
2022/03/01 07:38:34;;;;;;;;;;;3.40;97.00;;;;;;5033212;28;20072;-73
2022/03/01 07:41:04;;;;;;;;;;;3.40;97.10;;;;;;5028915;28;19925;-74
2022/03/01 07:43:31;;;;;;;;;;;3.60;96.90;;;;;;5034063;28;19925;-73
2022/03/01 07:45:57;;;;;;;;;;;3.70;96.90;;;;;;5033281;28;19925;-73
2022/03/01 07:48:26;;;;;;;;;;;3.80;96.80;;;;;;5039609;28;20036;-78
2022/03/01 07:50:52;;;;;;;;;;;4.00;96.80;;;;;;5035117;28;19932;-74
2022/03/01 07:53:19;;;;;;;;;;;4.10;96.50;;;;;;5035210;28;19925;-74
2022/03/01 07:55:46;;;;;;;;;;;4.10;95.70;;;;;;5032343;28;19929;-73
2022/03/01 07:58:12;;;;;;;;;;;4.30;95.80;;;;;;5032062;28;19926;-73
2022/03/01 08:00:39;;;;;;;;;;;4.40;96.10;;;;;;5031261;28;19983;-73
2022/03/01 08:03:06;;;;;;;;;;;4.40;96.80;;;;;;5033267;28;20400;-73
2022/03/01 08:05:34;;;;;;;;;;;4.50;96.40;;;;;;5031579;28;20392;-74
2022/03/01 08:08:01;;;;;;;;;;;4.70;96.20;;;;;;5033778;28;19925;-73
2022/03/01 08:10:28;;;;;;;;;;;4.70;95.80;;;;;;5032023;28;19926;-74
2022/03/01 08:12:55;;;;;;;;;;;4.70;95.70;;;;;;5033118;28;19932;-74
2022/03/01 08:15:25;;;;;;;;;;;4.80;95.60;;;;;;5032281;28;19929;-73
2022/03/01 08:17:52;;;;;;;;;;;4.90;95.30;;;;;;5033574;28;20380;-72
2022/03/01 08:20:19;;;;;;;;;;;5.10;95.60;;;;;;5032437;28;20010;-75
2022/03/01 08:22:47;;;;;;;;;;;5.20;95.30;;;;;;5032393;28;19972;-73
2022/03/01 08:25:16;;;;;;;;;;;5.30;95.80;;;;;;5030131;28;20365;-74
2022/03/01 08:27:43;;;;;;;;;;;5.60;95.90;;;;;;5033002;28;19932;-74
2022/03/01 08:30:10;;;;;;;;;;;5.90;95.70;;;;;;5033452;28;19961;-76
2022/03/01 08:32:36;;;;;;;;;;;6.30;94.10;;;;;;5032918;28;19932;-73
2022/03/01 08:35:03;;;;;;;;;;;6.60;90.50;;;;;;5032151;28;19999;-73
2022/03/01 08:37:30;;;;;;;;;;;6.70;84.80;;;;;;5031468;28;20016;-73
2022/03/01 08:39:58;;;;;;;;;;;6.80;81.40;;;;;;5031603;28;19932;-75
2022/03/01 08:42:25;;;;;;;;;;;7.00;77.20;;;;;;5032906;28;20403;-73
2022/03/01 08:44:51;;;;;;;;;;;7.00;75.40;;;;;;5035239;28;19929;-73
2022/03/01 08:47:18;;;;;;;;;;;7.00;74.50;;;;;;5034227;28;19964;-73
2022/03/01 08:49:45;;;;;;;;;;;7.00;74.10;;;;;;5035322;28;19925;-73
2022/03/01 08:52:11;;;;;;;;;;;7.00;72.80;;;;;;5033236;28;19932;-72
2022/03/01 08:54:38;;;;;;;;;;;7.00;72.70;;;;;;5034687;28;19925;-73
2022/03/01 08:57:06;;;;;;;;;;;7.30;72.60;;;;;;5028563;28;19980;-73
2022/03/01 08:59:33;;;;;;;;;;;7.70;72.40;;;;;;5032071;28;19925;-73
2022/03/01 09:02:00;;;;;;;;;;;7.80;70.80;;;;;;5032640;28;19976;-73
2022/03/01 09:04:27;;;;;;;;;;;7.70;69.80;;;;;;5034837;28;19955;-73
2022/03/01 09:06:54;;;;;;;;;;;7.60;71.30;;;;;;5032840;28;19947;-73
2022/03/01 09:09:20;;;;;;;;;;;7.60;70.40;;;;;;5034259;28;20047;-73
2022/03/01 09:11:47;;;;;;;;;;;7.50;70.30;;;;;;5028877;28;19932;-73
2022/03/01 09:14:15;;;;;;;;;;;7.40;70.10;;;;;;5031299;28;19960;-74
2022/03/01 09:16:42;;;;;;;;;;;7.30;69.60;;;;;;5032172;28;20007;-73
2022/03/01 09:19:10;;;;;;;;;;;7.40;69.90;;;;;;5034893;28;19932;-73
2022/03/01 09:21:37;;;;;;;;;;;7.30;69.00;;;;;;5032759;28;19926;-73
2022/03/01 09:24:04;;;;;;;;;;;7.40;69.60;;;;;;5034117;28;19925;-74
2022/03/01 09:26:30;;;;;;;;;;;7.50;69.00;;;;;;5035765;28;19929;-74
2022/03/01 09:28:57;;;;;;;;;;;7.50;67.00;;;;;;5036093;28;19925;-73
2022/03/01 09:31:25;;;;;;;;;;;7.50;65.70;;;;;;5026305;28;19960;-73
2022/03/01 09:33:51;;;;;;;;;;;7.60;64.30;;;;;;5038611;28;19931;-73
2022/03/01 09:36:18;;;;;;;;;;;7.50;62.80;;;;;;5034249;28;19925;-73
2022/03/01 09:38:45;;;;;;;;;;;7.50;61.90;;;;;;5035826;28;20020;-74
2022/03/01 09:41:12;;;;;;;;;;;7.60;61.20;;;;;;5033279;28;20427;-74
2022/03/01 09:43:39;;;;;;;;;;;7.50;60.50;;;;;;5034166;28;19925;-77
2022/03/01 09:46:06;;;;;;;;;;;7.50;60.70;;;;;;5035103;28;19925;-74
2022/03/01 09:48:35;;;;;;;;;;;7.50;60.40;;;;;;5035617;28;19976;-74
2022/03/01 09:51:02;;;;;;;;;;;7.60;60.10;;;;;;5034087;28;20362;-74
2022/03/01 09:53:29;;;;;;;;;;;7.60;58.80;;;;;;5034017;28;19933;-73
2022/03/01 09:55:56;;;;;;;;;;;7.60;60.00;;;;;;5028461;28;19926;-73
2022/03/01 09:58:22;;;;;;;;;;;7.60;59.10;;;;;;5034826;28;20392;-74
2022/03/01 10:00:49;;;;;;;;;;;7.70;58.90;;;;;;5030721;28;19925;-73
2022/03/01 10:03:16;;;;;;;;;;;7.70;59.20;;;;;;5035664;28;19925;-74
2022/03/01 10:05:44;;;;;;;;;;;7.80;58.50;;;;;;5033650;28;19932;-73
2022/03/01 10:08:12;;;;;;;;;;;8.00;58.50;;;;;;5035209;28;19929;-73
2022/03/01 10:10:39;;;;;;;;;;;8.00;58.40;;;;;;5032615;28;19925;-73
2022/03/01 10:13:07;;;;;;;;;;;8.10;58.10;;;;;;5033680;28;19979;-73
2022/03/01 10:15:33;;;;;;;;;;;8.20;58.20;;;;;;5034208;28;19935;-73
2022/03/01 10:18:09;;;;;;;;;;;8.30;57.50;;;;;;5034589;28;20008;-73
2022/03/01 10:20:35;;;;;;;;;;;8.50;57.40;;;;;;5034708;28;19925;-73
2022/03/01 10:23:03;;;;;;;;;;;8.50;56.80;;;;;;5034773;28;20015;-73
2022/03/01 10:25:30;;;;;;;;;;;8.60;56.10;;;;;;5034949;28;20335;-73
2022/03/01 10:27:57;;;;;;;;;;;8.50;55.80;;;;;;5022310;28;19979;-72
2022/03/01 10:30:25;;;;;;;;;;;8.40;56.90;;;;;;5033230;28;19984;-74
2022/03/01 10:32:52;;;;;;;;;;;8.60;56.60;;;;;;5034853;28;20016;-74
2022/03/01 10:35:18;;;;;;;;;;;8.80;56.40;;;;;;5033249;28;20430;-74
2022/03/01 10:37:45;;;;;;;;;;;8.90;55.90;;;;;;5034659;28;19987;-73
2022/03/01 10:40:18;;;;;;;;;;;9.00;56.00;;;;;;5032157;28;19925;-73
2022/03/01 10:42:45;;;;;;;;;;;9.00;55.10;;;;;;5033095;28;19979;-75
2022/03/01 10:45:12;;;;;;;;;;;9.00;54.50;;;;;;5033374;28;19925;-74
2022/03/01 10:47:40;;;;;;;;;;;8.80;53.60;;;;;;5035390;28;19925;-73
2022/03/01 10:50:08;;;;;;;;;;;8.70;54.20;;;;;;5033757;28;19925;-73
2022/03/01 10:52:35;;;;;;;;;;;8.70;54.30;;;;;;5034604;28;19941;-78
2022/03/01 10:55:02;;;;;;;;;;;8.80;53.80;;;;;;5034989;28;19932;-73
2022/03/01 10:57:31;;;;;;;;;;;8.70;54.10;;;;;;5035257;28;19971;-76
2022/03/01 10:59:58;;;;;;;;;;;8.70;54.10;;;;;;5035859;28;20273;-74
2022/03/01 11:02:24;;;;;;;;;;;8.70;54.70;;;;;;5033946;28;20012;-73
2022/03/01 11:04:52;;;;;;;;;;;8.70;54.80;;;;;;5034471;28;19932;-73
2022/03/01 11:07:19;;;;;;;;;;;8.70;55.60;;;;;;5031578;28;20011;-74
2022/03/01 11:09:46;;;;;;;;;;;8.70;55.90;;;;;;5034008;28;19925;-72
2022/03/01 11:12:13;;;;;;;;;;;8.60;55.60;;;;;;5031737;28;19931;-74
2022/03/01 11:14:46;;;;;;;;;;;8.60;56.60;;;;;;5031638;28;20319;-73
2022/03/01 11:17:17;;;;;;;;;;;8.80;58.80;;;;;;5031408;28;19929;-73
2022/03/01 11:19:55;;;;;;;;;;;8.80;58.00;;;;;;5033629;28;19925;-73
2022/03/01 11:22:24;;;;;;;;;;;8.90;58.00;;;;;;5031596;28;19980;-73
2022/03/01 11:24:50;;;;;;;;;;;9.00;57.80;;;;;;5033966;28;19925;-73
2022/03/01 11:27:21;;;;;;;;;;;9.10;57.50;;;;;;5029192;28;20027;-73
2022/03/01 11:29:52;;;;;;;;;;;9.10;57.00;;;;;;5031585;28;19940;-73
2022/03/01 11:32:24;;;;;;;;;;;9.10;57.60;;;;;;5030473;28;19972;-74
2022/03/01 11:35:00;;;;;;;;;;;9.10;57.40;;;;;;5033003;28;19935;-74
2022/03/01 11:37:27;;;;;;;;;;;9.10;57.80;;;;;;5031583;28;19925;-73
2022/03/01 11:39:55;;;;;;;;;;;9.10;59.00;;;;;;5030613;28;19925;-75
2022/03/01 11:42:22;;;;;;;;;;;9.20;59.40;;;;;;5029978;28;20012;-73
2022/03/01 11:44:50;;;;;;;;;;;9.30;59.10;;;;;;5031577;28;20281;-73
2022/03/01 11:47:25;;;;;;;;;;;9.50;59.20;;;;;;5028054;28;19955;-73
2022/03/01 11:49:52;;;;;;;;;;;9.70;59.60;;;;;;5021912;28;20248;-74
2022/03/01 11:52:19;;;;;;;;;;;9.90;59.30;;;;;;5030505;28;20292;-73
2022/03/01 11:54:56;;;;;;;;;;;9.90;56.70;;;;;;5032451;28;19979;-74
2022/03/01 11:57:26;;;;;;;;;;;9.90;56.70;;;;;;5029890;28;19925;-73
2022/03/01 11:59:53;;;;;;;;;;;10.10;56.20;;;;;;5032818;28;19926;-73
2022/03/01 12:02:20;;;;;;;;;;;10.30;54.70;;;;;;5031134;28;19925;-73
2022/03/01 12:04:49;;;;;;;;;;;10.30;52.30;;;;;;5031732;28;19925;-72
2022/03/01 12:07:18;;;;;;;;;;;10.50;52.50;;;;;;5030890;28;19932;-73
2022/03/01 12:09:53;;;;;;;;;;;10.40;52.50;;;;;;5032698;28;19932;-73
2022/03/01 12:12:30;;;;;;;;;;;10.50;51.90;;;;;;5030700;28;20040;-74
2022/03/01 12:14:57;;;;;;;;;;;10.60;52.00;;;;;;5030120;28;19926;-72
2022/03/01 12:17:23;;;;;;;;;;;10.60;51.30;;;;;;5030002;28;19932;-73
2022/03/01 12:20:00;;;;;;;;;;;10.80;50.80;;;;;;5032743;28;20012;-71
2022/03/01 12:22:27;;;;;;;;;;;10.90;49.50;;;;;;5031058;28;20407;-73
2022/03/01 12:24:53;;;;;;;;;;;10.90;46.60;;;;;;5032168;28;19931;-73
2022/03/01 12:27:20;;;;;;;;;;;10.90;46.00;;;;;;5030564;28;19925;-73
2022/03/01 12:29:47;;;;;;;;;;;10.90;46.50;;;;;;5032255;28;19975;-73
2022/03/01 12:32:16;;;;;;;;;;;10.90;47.20;;;;;;5030065;28;20358;-72
2022/03/01 12:34:43;;;;;;;;;;;11.00;45.80;;;;;;5032508;28;19929;-72
2022/03/01 12:37:14;;;;;;;;;;;11.10;44.60;;;;;;5030287;28;19975;-74
2022/03/01 12:39:41;;;;;;;;;;;11.20;44.80;;;;;;5030278;28;19932;-74
2022/03/01 12:42:08;;;;;;;;;;;11.40;43.40;;;;;;5029556;28;19925;-73
2022/03/01 12:44:35;;;;;;;;;;;11.40;44.00;;;;;;5029145;28;19972;-73
2022/03/01 12:47:02;;;;;;;;;;;11.60;42.60;;;;;;5030426;28;19933;-74
2022/03/01 12:49:29;;;;;;;;;;;11.60;41.40;;;;;;5032333;28;20011;-72
2022/03/01 12:51:57;;;;;;;;;;;11.60;41.50;;;;;;5028001;28;19948;-74
2022/03/01 12:54:25;;;;;;;;;;;11.50;41.20;;;;;;5031738;28;19937;-72
2022/03/01 12:56:53;;;;;;;;;;;11.20;41.30;;;;;;5030024;28;20359;-73
2022/03/01 12:59:21;;;;;;;;;;;11.10;41.60;;;;;;5032407;28;19932;-73
2022/03/01 13:01:48;;;;;;;;;;;10.80;41.80;;;;;;5034208;28;19931;-72
2022/03/01 13:04:17;;;;;;;;;;;10.80;42.80;;;;;;5036217;28;20483;-72
2022/03/01 13:06:44;;;;;;;;;;;10.80;43.20;;;;;;5033969;28;19925;-72
2022/03/01 13:09:11;;;;;;;;;;;10.90;43.70;;;;;;5035116;28;19936;-72
2022/03/01 13:11:39;;;;;;;;;;;11.00;43.10;;;;;;5034049;28;20266;-72
2022/03/01 13:14:07;;;;;;;;;;;11.00;43.50;;;;;;5035504;28;19965;-72
2022/03/01 13:16:36;;;;;;;;;;;11.00;41.90;;;;;;5032659;28;19925;-72
2022/03/01 13:19:04;;;;;;;;;;;11.00;42.40;;;;;;5035764;28;19940;-73
2022/03/01 13:21:32;;;;;;;;;;;11.00;42.00;;;;;;5034348;28;19947;-73
2022/03/01 13:24:00;;;;;;;;;;;11.20;41.60;;;;;;5035519;28;19925;-73
2022/03/01 13:26:28;;;;;;;;;;;11.10;41.10;;;;;;5033797;28;19925;-73
2022/03/01 13:29:06;;;;;;;;;;;11.10;41.50;;;;;;5035165;28;19925;-73
2022/03/01 13:31:33;;;;;;;;;;;11.10;41.10;;;;;;5031910;28;20277;-73
2022/03/01 13:34:00;;;;;;;;;;;11.10;40.60;;;;;;5035616;28;19925;-73
2022/03/01 13:36:28;;;;;;;;;;;11.00;41.40;;;;;;5033352;28;20012;-73
2022/03/01 13:39:02;;;;;;;;;;;10.90;41.40;;;;;;5034768;28;20376;-72
2022/03/01 13:41:30;;;;;;;;;;;10.80;41.30;;;;;;5030205;28;20376;-74
2022/03/01 13:44:08;;;;;;;;;;;10.70;41.40;;;;;;5034560;28;20031;-72
2022/03/01 13:46:35;;;;;;;;;;;10.70;41.60;;;;;;5026687;28;20019;-73
2022/03/01 13:49:05;;;;;;;;;;;10.60;42.20;;;;;;5034765;28;19931;-72
2022/03/01 13:51:32;;;;;;;;;;;10.60;42.50;;;;;;5033184;28;19925;-73
2022/03/01 13:54:05;;;;;;;;;;;10.70;42.80;;;;;;5034606;28;19940;-73
2022/03/01 13:56:31;;;;;;;;;;;10.70;43.10;;;;;;5032788;28;19931;-73
2022/03/01 13:59:03;;;;;;;;;;;10.80;44.50;;;;;;5033935;28;20016;-74
2022/03/01 14:01:30;;;;;;;;;;;10.70;44.90;;;;;;5032437;28;19925;-74
2022/03/01 14:04:02;;;;;;;;;;;10.70;44.90;;;;;;5034753;28;20000;-73
2022/03/01 14:06:29;;;;;;;;;;;10.90;43.60;;;;;;5033133;28;19925;-74
2022/03/01 14:08:55;;;;;;;;;;;11.10;42.50;;;;;;5034767;28;20024;-73
2022/03/01 14:11:23;;;;;;;;;;;11.00;42.90;;;;;;5032330;28;20280;-73
2022/03/01 14:13:50;;;;;;;;;;;10.80;43.30;;;;;;5034117;28;19929;-72
2022/03/01 14:16:19;;;;;;;;;;;10.90;42.60;;;;;;5027641;28;20007;-73
2022/03/01 14:18:47;;;;;;;;;;;11.00;43.30;;;;;;5034188;28;19931;-73
2022/03/01 14:21:15;;;;;;;;;;;11.00;42.20;;;;;;5032513;28;19975;-72
2022/03/01 14:23:43;;;;;;;;;;;11.20;43.00;;;;;;5034432;28;20012;-73
2022/03/01 14:26:10;;;;;;;;;;;11.20;43.10;;;;;;5032474;28;19926;-72
2022/03/01 14:28:36;;;;;;;;;;;11.20;43.30;;;;;;5034315;28;20344;-73